createdAt,value
2024-02-23T06:54:53.001Z,0.10
2024-02-23T06:57:48.255Z,0.20
2024-02-23T07:09:59.626Z,0.15
2024-02-23T07:12:29.011Z,0.10
2024-02-23T07:14:59.854Z,0.17
2024-02-23T07:17:38.382Z,0.10
2024-02-23T07:20:26.237Z,0.17
2024-02-23T07:22:54.389Z,0.25
2024-02-23T07:25:34.257Z,0.20
2024-02-23T07:28:02.356Z,0.10
2024-02-23T07:30:32.446Z,0.20
2024-02-23T07:32:59.573Z,0.08
2024-02-23T07:35:29.463Z,0.15
2024-02-23T07:38:14.647Z,0.10
2024-02-23T07:40:59.866Z,0.20
2024-02-23T07:43:30.319Z,0.10
2024-02-23T07:45:58.578Z,0.10
2024-02-23T07:48:25.316Z,0.10
2024-02-23T07:50:52.763Z,0.15
2024-02-23T07:53:19.284Z,0.10
2024-02-23T07:56:06.818Z,0.28
2024-02-23T07:58:42.991Z,0.10
2024-02-23T08:01:18.611Z,0.10
2024-02-23T08:03:47.351Z,0.10
2024-02-23T08:06:14.422Z,0.05
2024-02-23T08:08:41.923Z,0.10
2024-02-23T08:11:14.752Z,0.22
2024-02-23T08:13:42.604Z,0.10
2024-02-23T09:22:38.259Z,0.10
2024-02-23T09:28:20.758Z,0.10
2024-02-23T09:37:09.843Z,0.05
2024-02-23T09:39:48.920Z,0.10
2024-02-23T09:42:43.637Z,0.03
2024-02-23T09:45:15.260Z,0.10
2024-02-23T12:43:45.793Z,0.20
2024-02-23T12:49:53.294Z,0.17
2024-02-23T13:43:45.345Z,0.20
2024-02-23T13:49:06.358Z,0.13
2024-02-23T13:51:34.212Z,0.10
2024-02-23T13:54:01.050Z,0.10
2024-02-23T13:56:40.896Z,0.13
2024-02-23T13:59:07.772Z,0.30
2024-02-23T17:12:57.544Z,0.55
2024-02-23T17:18:42.857Z,0.55
2024-02-23T17:23:56.021Z,0.90
2024-02-23T17:26:22.804Z,0.70
2024-02-23T17:28:51.944Z,0.43
2024-02-23T17:31:19.925Z,0.40
2024-02-23T17:38:49.879Z,0.60
2024-02-23T17:44:00.237Z,0.70
2024-02-23T17:46:27.060Z,0.85
2024-02-23T17:48:53.617Z,0.90
2024-02-23T17:51:21.183Z,0.93
2024-02-23T17:53:48.227Z,0.80
2024-02-23T18:01:40.522Z,0.82
2024-02-23T18:06:33.447Z,0.68
2024-02-23T18:09:00.427Z,0.75
2024-02-23T18:11:27.462Z,1.02
2024-02-23T18:13:56.423Z,2.40
2024-02-23T18:16:23.341Z,1.63
2024-02-23T18:18:52.139Z,1.30
2024-02-23T18:21:19.899Z,2.85
2024-02-23T18:23:59.521Z,1.40
2024-02-23T18:26:26.357Z,1.33
2024-02-23T18:28:53.149Z,3.70
2024-02-23T18:31:20.931Z,2.78
2024-02-23T18:33:47.617Z,1.08
2024-02-23T18:36:17.107Z,1.40
2024-02-23T18:38:44.231Z,1.17
2024-02-23T18:41:12.921Z,0.75
2024-02-23T18:43:43.071Z,0.73
2024-02-23T18:46:15.476Z,0.70
2024-02-23T18:48:42.327Z,0.63
2024-02-23T18:51:09.363Z,0.70
2024-02-23T18:53:36.591Z,0.90
2024-02-23T18:56:06.934Z,0.60
2024-02-23T18:58:34.035Z,0.50
2024-02-23T19:01:01.990Z,0.88
2024-02-23T19:03:28.981Z,0.57
2024-02-23T19:05:55.654Z,0.60
2024-02-23T19:08:22.501Z,0.77
2024-02-23T19:10:49.107Z,0.57
2024-02-23T19:13:15.639Z,0.82
2024-02-23T19:15:44.179Z,1.08
2024-02-23T19:18:13.469Z,1.75
2024-02-23T19:20:40.011Z,0.50
2024-02-23T19:23:06.560Z,0.70
2024-02-23T19:25:33.133Z,0.77
2024-02-23T19:28:00.950Z,0.90
2024-02-23T19:30:28.994Z,0.60
2024-02-23T19:32:56.087Z,0.80
2024-02-23T19:35:25.580Z,0.63
2024-02-23T19:37:52.121Z,0.43
2024-02-23T19:40:22.855Z,0.80
2024-02-23T19:45:17.122Z,0.70
2024-02-23T19:47:43.792Z,1.00
2024-02-23T19:50:11.730Z,0.75
2024-02-23T19:52:38.295Z,0.82
2024-02-23T19:55:06.207Z,0.52
2024-02-23T19:57:33.299Z,1.05
2024-02-23T20:00:07.101Z,0.75
2024-02-23T20:02:33.618Z,0.90
2024-02-23T20:05:00.334Z,1.10
2024-02-23T20:07:26.964Z,0.68
2024-02-23T20:09:53.594Z,0.90
2024-02-23T20:12:21.392Z,0.77
2024-02-23T20:14:48.862Z,0.75
2024-02-23T20:17:16.640Z,0.90
2024-02-23T20:19:44.974Z,0.70
2024-02-23T20:31:39.933Z,1.20
2024-02-23T21:11:59.121Z,1.30
2024-02-23T21:20:20.103Z,1.50
2024-02-23T21:22:51.414Z,2.28
2024-02-23T21:30:49.386Z,1.40
2024-02-23T21:33:27.309Z,1.48
2024-02-23T21:35:56.450Z,1.45
2024-02-23T21:38:25.532Z,0.90
2024-02-23T21:40:54.680Z,0.93
2024-02-23T21:46:13.602Z,1.55
